MDT,Max TemperatureF,Mean TemperatureF,Min TemperatureF,Max Dew PointF,MeanDew PointF,Min DewpointF,Max Humidity, Mean Humidity, Min Humidity, Max Sea Level PressureIn, Mean Sea Level PressureIn, Min Sea Level PressureIn, Max VisibilityMiles, Mean VisibilityMiles, Min VisibilityMiles, Max Wind SpeedMPH, Mean Wind SpeedMPH, Max Gust SpeedMPH,PrecipitationIn, CloudCover, Events, WindDirDegrees
2012-10-1,80,70,59,61,57,48,100,73,32,29.93,29.89,29.84,10,9,5,12,2,20,0.00,1,,325
2012-10-2,77,68,59,55,52,46,82,61,36,30.02,29.97,29.92,10,10,10,14,4,20,0.00,1,,318
2012-10-3,82,68,55,59,53,50,100,58,35,30.03,29.98,29.94,10,10,10,12,4,17,0.00,0,,167
2012-10-4,87,78,69,68,65,61,83,67,46,30.09,30.05,30.01,10,10,10,14,7,22,0.00,4,,158
2012-10-5,87,78,68,70,63,59,100,67,38,30.11,30.04,29.96,10,10,5,12,3,20,0.00,2,,175
2012-10-6,69,60,51,64,52,45,88,75,68,30.19,30.09,30.00,10,10,7,9,4,18,0.00,7,,32
2012-10-7,53,50,46,45,40,36,87,67,54,30.26,30.21,30.15,10,10,10,13,7,20,0.00,8,Rain,20
2012-10-8,68,57,46,50,42,37,82,61,46,30.25,30.16,30.06,10,10,10,8,3,,0.00,5,,107
2012-10-9,80,70,59,63,57,50,100,70,51,30.06,30.00,29.92,10,10,7,14,5,25,0.00,5,,175
2012-10-10,86,75,64,72,67,63,100,77,45,30.14,30.06,29.99,10,9,2,14,2,21,0.00,6,,161
2012-10-11,86,78,69,72,69,68,100,81,55,30.14,30.09,30.04,10,10,7,13,7,22,0.00,5,Thunderstorm,157
2012-10-12,86,76,66,70,66,61,100,74,43,30.17,30.11,30.07,10,10,5,12,6,22,0.00,3,,156
2012-10-13,80,76,73,72,69,66,83,76,65,30.08,29.98,29.88,10,10,7,17,8,25,0.00,7,Rain-Thunderstorm,165
2012-10-14,82,71,60,68,60,50,100,73,32,30.13,30.05,29.92,10,10,2,13,5,24,0.78,2,Rain-Thunderstorm,317
2012-10-15,77,66,55,59,53,46,100,69,36,30.15,30.07,29.99,10,10,10,6,1,,0.00,0,,139
2012-10-16,69,66,62,68,60,50,100,78,56,29.98,29.87,29.78,10,9,5,10,3,18,0.02,7,Rain,171
2012-10-17,89,76,64,68,60,46,100,63,29,29.80,29.72,29.63,10,10,7,12,5,24,0.00,2,,219
2012-10-18,77,64,51,52,39,30,77,43,18,30.00,29.93,29.79,10,10,10,12,3,17,0.00,0,,62
2012-10-19,48,46,42,43,42,41,93,87,82,30.02,30.01,30.00,10,10,10,5,1,,0.00,0,,188
2012-10-20,,,,,,,,,,,,,,,,,,,,,,
2012-10-21,,,,,,,,,,,,,,,,,,,,,,
2012-10-22,,,,,,,,,,,,,,,,,,,,,,
2012-10-23,80,76,69,66,65,64,83,71,58,29.95,29.93,29.91,10,10,10,,,,0.00,2,,-1
2012-10-24,84,76,69,64,62,57,83,66,42,30.00,29.92,29.86,10,10,10,,,,0.00,3,,-1
2012-10-25,86,73,60,64,59,45,83,61,45,30.06,29.90,29.82,10,10,7,,,,0.00,5,,-1
2012-10-26,59,54,48,43,38,32,76,57,47,30.30,30.19,30.06,10,10,7,,,,0.00,8,Rain-Thunderstorm,-1
2012-10-27,59,52,44,36,31,28,57,45,31,30.32,30.23,30.14,10,10,10,,,,0.00,6,,-1
2012-10-28,64,50,35,36,31,27,87,54,24,30.30,30.23,30.17,10,10,10,,,,0.00,1,,-1
2012-10-29,69,52,35,36,33,32,87,54,25,30.30,30.20,30.12,10,10,10,,,,0.00,0,,-1
2012-10-30,77,59,41,52,45,36,87,59,39,30.11,30.04,29.96,10,10,10,,,,0.00,0,,-1
2012-10-31,80,65,50,61,52,43,100,68,26,30.09,30.02,29.98,10,10,7,,,,0.00,1,,-1